createdAt,value
2018-08-17T00:01:11.023Z,3.70
2018-08-17T00:03:41.244Z,3.58
2018-08-17T00:06:10.703Z,3.83
2018-08-17T00:08:40.271Z,3.87
2018-08-17T00:11:10.147Z,3.83
2018-08-17T00:13:40.380Z,3.58
2018-08-17T00:16:10.651Z,3.60
2018-08-17T00:18:40.669Z,3.22
2018-08-17T00:21:11.156Z,3.52
2018-08-17T00:23:41.155Z,3.35
2018-08-17T00:26:11.053Z,3.58
2018-08-17T00:28:41.116Z,3.80
2018-08-17T00:31:10.791Z,3.50
2018-08-17T00:33:41.013Z,3.85
2018-08-17T00:36:10.499Z,3.42
2018-08-17T00:38:40.692Z,3.47
2018-08-17T00:41:10.855Z,3.55
2018-08-17T00:43:40.146Z,3.58
2018-08-17T00:46:11.271Z,3.47
2018-08-17T00:48:41.271Z,3.90
2018-08-17T00:51:10.658Z,3.80
2018-08-17T00:53:40.744Z,3.65
2018-08-17T00:56:11.099Z,3.87
2018-08-17T00:58:41.118Z,3.70
2018-08-17T01:01:10.646Z,3.58
2018-08-17T01:03:40.907Z,3.50
2018-08-17T01:06:11.073Z,4.08
2018-08-17T01:08:41.019Z,3.37
2018-08-17T01:11:11.007Z,3.50
2018-08-17T01:13:40.660Z,3.35
2018-08-17T01:16:10.733Z,3.72
2018-08-17T01:18:41.329Z,3.60
2018-08-17T01:21:10.797Z,3.45
2018-08-17T01:23:40.931Z,3.90
2018-08-17T01:26:10.736Z,3.40
2018-08-17T01:28:40.518Z,3.67
2018-08-17T01:31:10.559Z,3.80
2018-08-17T01:33:41.333Z,3.85
2018-08-17T01:36:10.472Z,3.95
2018-08-17T01:38:40.674Z,3.70
2018-08-17T01:41:10.482Z,3.80
2018-08-17T01:43:40.552Z,3.62
2018-08-17T01:46:10.640Z,3.98
2018-08-17T01:48:40.617Z,3.90
2018-08-17T01:51:10.589Z,3.92
2018-08-17T01:53:40.672Z,4.00
2018-08-17T01:56:11.089Z,3.90
2018-08-17T01:58:41.257Z,3.92
2018-08-17T02:01:11.225Z,3.98
2018-08-17T02:03:41.419Z,4.35
2018-08-17T02:06:11.022Z,3.90
2018-08-17T02:08:40.359Z,3.87
2018-08-17T02:11:10.236Z,4.10
2018-08-17T02:13:40.277Z,4.05
2018-08-17T02:16:10.552Z,4.00
2018-08-17T02:18:40.822Z,3.98
2018-08-17T02:21:12.192Z,3.98
2018-08-17T02:23:41.723Z,3.75
2018-08-17T02:26:11.011Z,4.62
2018-08-17T02:28:40.991Z,4.10
2018-08-17T02:31:11.057Z,3.72
2018-08-17T02:33:41.196Z,3.75
2018-08-17T02:36:11.306Z,4.37
2018-08-17T02:38:41.445Z,4.08
2018-08-17T02:41:10.855Z,3.95
2018-08-17T02:43:40.882Z,4.03
2018-08-17T02:46:11.050Z,3.95
2018-08-17T02:48:41.137Z,4.20
2018-08-17T02:51:11.380Z,4.25
2018-08-17T02:53:40.795Z,3.80
2018-08-17T02:56:10.145Z,4.40
2018-08-17T02:58:41.048Z,4.08
2018-08-17T03:01:11.147Z,4.30
2018-08-17T03:03:41.199Z,4.72
2018-08-17T03:06:11.219Z,4.08
2018-08-17T03:08:41.292Z,4.05
2018-08-17T03:11:10.931Z,4.70
2018-08-17T03:13:40.003Z,4.15
2018-08-17T03:16:09.491Z,4.35
2018-08-17T03:18:39.108Z,4.42
2018-08-17T03:21:08.224Z,4.35
2018-08-17T03:23:38.163Z,4.92
2018-08-17T03:26:08.381Z,4.35
2018-08-17T03:28:38.361Z,4.62
2018-08-17T03:31:08.663Z,4.33
2018-08-17T03:33:38.787Z,4.30
2018-08-17T03:36:08.180Z,4.00
2018-08-17T03:38:37.689Z,4.83
2018-08-17T03:41:07.135Z,4.37
2018-08-17T03:43:36.380Z,4.30
2018-08-17T03:46:06.451Z,5.10
2018-08-17T03:48:36.605Z,4.53
2018-08-17T03:51:06.530Z,4.80
2018-08-17T03:53:36.731Z,4.53
2018-08-17T03:56:06.223Z,4.80
2018-08-17T03:58:35.700Z,5.08
2018-08-17T04:01:05.410Z,5.05
2018-08-17T04:03:34.589Z,4.70
2018-08-17T04:06:04.610Z,5.70
2018-08-17T04:08:34.716Z,6.22
2018-08-17T04:11:04.719Z,5.08
2018-08-17T04:13:34.774Z,5.05
2018-08-17T04:16:05.088Z,6.58
2018-08-17T04:18:35.463Z,5.60
2018-08-17T04:21:04.891Z,5.50
2018-08-17T04:23:34.947Z,5.40
2018-08-17T04:26:04.176Z,5.67
2018-08-17T04:28:34.446Z,6.00
2018-08-17T04:31:04.462Z,5.58
2018-08-17T04:33:34.486Z,6.05
2018-08-17T04:36:04.631Z,6.42
2018-08-17T04:38:34.803Z,5.90
2018-08-17T04:41:04.610Z,5.72
2018-08-17T04:43:34.849Z,5.85
2018-08-17T04:46:05.184Z,6.60
2018-08-17T04:48:34.666Z,5.70
2018-08-17T04:51:04.249Z,5.58
2018-08-17T04:53:33.797Z,6.40
2018-08-17T04:56:03.135Z,6.60
2018-08-17T04:58:32.493Z,5.67
2018-08-17T05:01:01.661Z,5.83
2018-08-17T05:03:31.228Z,6.03
2018-08-17T05:06:00.320Z,5.75
2018-08-17T05:08:30.614Z,5.92
2018-08-17T05:11:01.083Z,5.87
2018-08-17T05:13:30.217Z,6.30
2018-08-17T05:16:00.187Z,6.50
2018-08-17T05:18:30.231Z,6.95
2018-08-17T05:21:00.252Z,6.97
2018-08-17T05:23:30.254Z,6.75
2018-08-17T05:26:00.422Z,6.78
2018-08-17T05:28:30.617Z,7.00
2018-08-17T05:31:00.744Z,6.75
2018-08-17T05:33:30.605Z,7.75
2018-08-17T05:36:01.035Z,7.85
2018-08-17T05:38:31.074Z,9.10
2018-08-17T05:41:01.202Z,8.53
2018-08-17T05:43:31.350Z,7.50
2018-08-17T05:46:01.229Z,7.22
2018-08-17T05:48:31.306Z,8.13
2018-08-17T05:51:00.883Z,7.37
2018-08-17T05:53:30.149Z,6.80
2018-08-17T05:55:59.284Z,7.62
2018-08-17T05:58:29.246Z,7.40
2018-08-17T06:00:58.906Z,7.50
2018-08-17T06:03:28.179Z,7.37
2018-08-17T06:05:57.800Z,7.53
2018-08-17T06:08:27.566Z,6.97
2018-08-17T06:10:57.499Z,7.30
2018-08-17T06:13:26.990Z,8.10
2018-08-17T06:15:57.288Z,7.30
2018-08-17T06:18:26.784Z,7.40
2018-08-17T06:20:56.138Z,7.25
2018-08-17T06:23:25.449Z,7.72
2018-08-17T06:25:54.907Z,8.58
2018-08-17T06:28:24.913Z,9.30
2018-08-17T06:30:55.385Z,10.53
2018-08-17T06:33:25.054Z,11.65
2018-08-17T06:35:54.306Z,11.65
2018-08-17T06:38:24.247Z,10.55
2018-08-17T06:40:54.458Z,10.35
2018-08-17T06:43:24.265Z,9.98
2018-08-17T06:45:54.701Z,9.90
2018-08-17T06:48:24.555Z,10.28
2018-08-17T06:50:55.012Z,9.58
2018-08-17T06:53:24.309Z,8.48
2018-08-17T06:55:53.907Z,9.38
2018-08-17T06:58:23.151Z,10.03
2018-08-17T07:00:53.234Z,8.85
2018-08-17T07:03:23.063Z,8.93
2018-08-17T07:05:52.554Z,9.40
2018-08-17T07:08:22.018Z,7.85
2018-08-17T07:10:51.554Z,8.63
2018-08-17T07:13:21.248Z,8.43
2018-08-17T07:15:50.386Z,8.28
2018-08-17T07:18:20.316Z,7.60
2018-08-17T07:20:50.757Z,8.18
2018-08-17T07:23:19.834Z,7.90
2018-08-17T07:25:49.104Z,9.03
2018-08-17T07:28:19.240Z,8.13
2018-08-17T07:30:49.115Z,7.35
2018-08-17T07:33:19.131Z,7.53
2018-08-17T07:35:49.195Z,7.45
2018-08-17T07:38:19.276Z,7.53
2018-08-17T07:40:48.628Z,7.35
2018-08-17T07:43:19.114Z,6.90
2018-08-17T07:45:49.005Z,6.95
2018-08-17T07:48:18.653Z,6.25
2018-08-17T07:50:48.070Z,6.67
2018-08-17T07:53:17.735Z,6.83
2018-08-17T07:55:47.138Z,6.72
2018-08-17T07:58:16.657Z,6.15
2018-08-17T08:00:46.635Z,6.45
2018-08-17T08:03:16.536Z,6.28
2018-08-17T08:05:46.767Z,6.25
2018-08-17T08:08:16.701Z,6.25
2018-08-17T08:10:46.920Z,5.92
2018-08-17T08:13:17.206Z,5.20
2018-08-17T08:15:46.826Z,5.92
2018-08-17T08:18:17.056Z,6.12
2018-08-17T08:20:47.536Z,6.03
2018-08-17T08:23:21.955Z,5.72
2018-08-17T08:25:51.348Z,5.05
2018-08-17T08:28:21.086Z,5.45
2018-08-17T08:30:51.262Z,5.85
2018-08-17T08:33:21.462Z,5.85
2018-08-17T08:35:51.342Z,5.45
2018-08-17T08:38:24.451Z,5.05
2018-08-17T08:40:55.039Z,4.10
2018-08-17T08:43:25.241Z,4.62
2018-08-17T08:45:55.120Z,4.28
2018-08-17T08:48:25.370Z,4.28
2018-08-17T08:50:55.116Z,4.62
2018-08-17T08:53:24.384Z,3.72
2018-08-17T08:55:54.491Z,3.95
2018-08-17T08:58:24.912Z,3.98
2018-08-17T09:00:54.898Z,3.67
2018-08-17T09:03:25.481Z,4.35
2018-08-17T09:05:55.067Z,3.90
2018-08-17T09:08:25.230Z,4.40
2018-08-17T09:10:55.879Z,3.62
2018-08-17T09:13:25.089Z,4.05
2018-08-17T09:15:55.332Z,3.83
2018-08-17T09:18:25.238Z,3.50
2018-08-17T09:20:54.886Z,3.60
2018-08-17T09:23:25.302Z,3.98
2018-08-17T09:25:55.192Z,3.42
2018-08-17T09:28:24.743Z,3.60
2018-08-17T09:30:54.952Z,3.58
2018-08-17T09:33:24.971Z,3.20
2018-08-17T09:35:55.035Z,2.83
2018-08-17T09:38:25.121Z,3.37
2018-08-17T09:40:54.967Z,3.35
2018-08-17T09:43:25.837Z,3.65
2018-08-17T09:45:56.187Z,3.50
2018-08-17T09:48:26.500Z,3.50
2018-08-17T09:50:55.855Z,3.37
2018-08-17T09:53:25.480Z,3.60
2018-08-17T09:55:55.112Z,3.30
2018-08-17T09:58:25.035Z,3.33
2018-08-17T10:01:00.136Z,3.40
2018-08-17T10:04:35.729Z,3.00
2018-08-17T10:07:10.244Z,3.10
2018-08-17T10:09:44.981Z,3.02
2018-08-17T10:12:15.071Z,2.58
2018-08-17T10:14:44.569Z,2.85
2018-08-17T10:17:14.614Z,2.98
2018-08-17T10:19:45.015Z,2.92
2018-08-17T10:22:14.374Z,2.70
2018-08-17T10:24:43.535Z,2.80
2018-08-17T10:27:12.667Z,2.92
2018-08-17T10:29:41.926Z,2.80
2018-08-17T10:32:11.034Z,2.65
2018-08-17T10:34:40.831Z,2.47
2018-08-17T10:37:11.832Z,2.37
2018-08-17T10:39:41.088Z,2.72
2018-08-17T10:42:12.229Z,2.65
2018-08-17T10:44:42.295Z,2.83
2018-08-17T10:47:11.995Z,2.62
2018-08-17T10:49:41.990Z,2.80
2018-08-17T10:52:11.225Z,2.95
2018-08-17T10:54:41.574Z,2.90
2018-08-17T10:57:11.365Z,3.27
2018-08-17T10:59:41.740Z,2.90
2018-08-17T11:02:11.039Z,2.90
2018-08-17T11:04:42.014Z,3.00
2018-08-17T11:07:12.011Z,2.72
2018-08-17T11:09:42.104Z,3.00
2018-08-17T11:12:12.205Z,2.92
2018-08-17T11:14:41.909Z,2.75
2018-08-17T11:17:11.810Z,2.45
2018-08-17T11:19:40.983Z,3.08
2018-08-17T11:22:11.941Z,2.50
2018-08-17T11:24:41.385Z,2.62
2018-08-17T11:27:11.833Z,2.60
2018-08-17T11:29:41.318Z,2.58
2018-08-17T11:32:11.853Z,2.77
2018-08-17T11:34:41.629Z,2.72
2018-08-17T11:37:11.225Z,3.25
2018-08-17T11:39:47.810Z,2.92
2018-08-17T11:42:17.474Z,2.30
2018-08-17T11:44:47.969Z,2.90
2018-08-17T11:47:17.317Z,2.52
2018-08-17T11:49:47.164Z,2.92
2018-08-17T11:52:17.893Z,3.12
2018-08-17T11:54:47.534Z,3.12
2018-08-17T11:57:17.139Z,2.90
2018-08-17T12:00:05.345Z,3.00
2018-08-17T12:02:36.112Z,2.62
2018-08-17T12:05:05.992Z,2.92
2018-08-17T12:07:35.343Z,2.70
2018-08-17T12:10:05.846Z,3.00
2018-08-17T12:12:36.263Z,2.70
2018-08-17T12:15:07.542Z,2.83
2018-08-17T12:17:37.101Z,3.17
2018-08-17T12:20:07.352Z,2.98
2018-08-17T12:22:37.748Z,3.00
2018-08-17T12:25:08.758Z,2.27
2018-08-17T12:27:39.169Z,2.87
2018-08-17T12:30:09.720Z,8.48
2018-08-17T12:32:39.257Z,2.58
2018-08-17T12:35:09.826Z,2.65
2018-08-17T12:37:39.756Z,2.77
2018-08-17T12:40:09.877Z,2.77
2018-08-17T12:42:40.744Z,3.37
2018-08-17T12:45:15.165Z,2.40
2018-08-17T12:47:45.991Z,2.67
2018-08-17T12:50:15.117Z,2.60
2018-08-17T12:52:45.829Z,2.33
2018-08-17T12:55:16.496Z,2.30
2018-08-17T12:57:47.270Z,2.80
2018-08-17T13:00:17.490Z,2.42
2018-08-17T13:02:48.865Z,2.62
2018-08-17T13:05:19.456Z,3.20
2018-08-17T13:07:50.166Z,2.75
2018-08-17T13:10:21.273Z,2.40
2018-08-17T13:12:57.049Z,2.77
2018-08-17T13:15:28.091Z,2.80
2018-08-17T13:17:58.823Z,2.40
2018-08-17T13:20:29.216Z,2.80
2018-08-17T13:23:00.040Z,2.70
2018-08-17T13:25:30.711Z,2.70
2018-08-17T13:28:01.334Z,2.75
2018-08-17T13:30:32.471Z,2.60
2018-08-17T13:33:02.476Z,2.67
2018-08-17T13:35:33.554Z,2.75
2018-08-17T13:38:04.234Z,2.42
2018-08-17T13:40:35.268Z,3.22
2018-08-17T13:43:05.349Z,2.70
2018-08-17T13:45:36.385Z,2.70
2018-08-17T13:48:06.676Z,2.80
2018-08-17T13:50:37.518Z,3.12
2018-08-17T13:53:08.447Z,2.80
2018-08-17T13:55:39.152Z,2.47
2018-08-17T13:58:09.564Z,2.37
2018-08-17T14:00:40.287Z,2.62
2018-08-17T14:03:10.656Z,2.47
2018-08-17T14:05:41.279Z,2.65
2018-08-17T14:08:11.864Z,2.70
2018-08-17T14:10:42.889Z,2.62
2018-08-17T14:13:13.613Z,2.62
2018-08-17T14:15:44.358Z,3.08
2018-08-17T14:18:14.998Z,2.70
2018-08-17T14:20:45.081Z,2.98
2018-08-17T14:23:15.475Z,2.92
2018-08-17T14:25:45.933Z,2.87
2018-08-17T14:28:16.654Z,3.25
2018-08-17T14:30:46.986Z,2.70
2018-08-17T14:33:17.773Z,2.72
2018-08-17T14:35:48.229Z,2.52
2018-08-17T14:38:34.340Z,2.50
2018-08-17T14:41:05.554Z,2.83
2018-08-17T14:43:36.012Z,16.07
2018-08-17T14:46:06.412Z,2.62
2018-08-17T14:48:36.747Z,2.62
2018-08-17T14:51:07.151Z,2.40
2018-08-17T14:53:37.512Z,3.70
2018-08-17T14:56:08.651Z,2.70
2018-08-17T14:58:39.692Z,2.45
2018-08-17T15:01:10.422Z,2.60
2018-08-17T15:03:41.385Z,2.77
2018-08-17T15:06:12.009Z,2.60
2018-08-17T15:08:42.593Z,2.55
2018-08-17T15:11:12.903Z,2.15
2018-08-17T15:13:44.005Z,2.20
2018-08-17T15:16:14.992Z,4.97
2018-08-17T15:18:46.112Z,2.35
2018-08-17T15:21:16.424Z,2.50
2018-08-17T15:23:47.212Z,2.65
2018-08-17T15:26:17.938Z,2.72
2018-08-17T15:28:49.035Z,2.60
2018-08-17T15:31:19.691Z,2.87
2018-08-17T15:33:50.729Z,2.85
2018-08-17T15:36:22.092Z,2.87
2018-08-17T15:38:52.750Z,2.60
2018-08-17T15:41:23.222Z,2.62
2018-08-17T15:43:52.969Z,2.52
2018-08-17T15:46:23.051Z,2.40
2018-08-17T15:48:55.008Z,2.40
2018-08-17T15:51:25.449Z,2.72
2018-08-17T15:53:56.174Z,2.40
2018-08-17T15:56:25.780Z,2.45
2018-08-17T15:58:55.691Z,2.40
2018-08-17T16:01:25.322Z,2.80
2018-08-17T16:03:55.783Z,2.50
2018-08-17T16:06:25.292Z,2.27
2018-08-17T16:08:55.372Z,2.47
2018-08-17T16:11:26.093Z,2.40
2018-08-17T16:13:55.853Z,2.65
2018-08-17T16:16:25.747Z,2.60
2018-08-17T16:18:55.312Z,2.20
2018-08-17T16:21:25.078Z,2.60
2018-08-17T16:23:55.807Z,2.65
2018-08-17T16:26:25.473Z,3.47
2018-08-17T16:28:55.222Z,2.90
2018-08-17T16:31:25.498Z,2.75
2018-08-17T16:33:54.649Z,2.70
2018-08-17T16:36:24.740Z,2.85
2018-08-17T16:38:54.340Z,2.37
2018-08-17T16:41:24.524Z,5.50
2018-08-17T16:43:55.552Z,4.65
2018-08-17T16:46:25.538Z,3.05
2018-08-17T16:48:55.827Z,2.62
2018-08-17T16:51:25.293Z,2.42
2018-08-17T16:53:56.551Z,2.95
2018-08-17T16:56:27.575Z,2.67
2018-08-17T16:58:57.537Z,2.70
2018-08-17T17:01:27.975Z,2.70
2018-08-17T17:03:57.999Z,2.77
2018-08-17T17:06:27.918Z,2.52
2018-08-17T17:09:01.534Z,2.65
2018-08-17T17:11:31.484Z,3.20
2018-08-17T17:14:01.400Z,3.77
2018-08-17T17:16:38.465Z,4.70
2018-08-17T17:19:17.830Z,3.12
2018-08-17T17:21:48.732Z,3.70
2018-08-17T17:24:19.270Z,2.83
2018-08-17T17:26:50.539Z,5.53
2018-08-17T17:29:22.052Z,4.22
2018-08-17T17:31:52.072Z,6.33
2018-08-17T17:34:22.147Z,8.50
2018-08-17T17:36:54.146Z,5.28
2018-08-17T17:39:23.597Z,3.55
2018-08-17T17:41:53.669Z,3.37
2018-08-17T17:44:23.366Z,3.55
2018-08-17T17:46:54.104Z,4.20
2018-08-17T17:49:24.230Z,4.80
2018-08-17T17:51:54.252Z,3.98
2018-08-17T17:54:24.884Z,3.00
2018-08-17T17:57:09.448Z,4.10
2018-08-17T18:00:12.028Z,3.50
2018-08-17T18:02:41.834Z,4.53
2018-08-17T18:05:11.926Z,4.80
2018-08-17T18:07:47.997Z,4.03
2018-08-17T18:10:19.264Z,4.72
2018-08-17T18:12:50.256Z,4.00
2018-08-17T18:15:21.307Z,5.20
2018-08-17T18:17:51.922Z,4.15
2018-08-17T18:20:22.471Z,3.80
2018-08-17T18:22:52.240Z,3.92
2018-08-17T18:25:22.158Z,4.47
2018-08-17T18:27:52.401Z,4.90
2018-08-17T18:30:22.147Z,4.35
2018-08-17T18:32:51.909Z,3.67
2018-08-17T18:35:21.992Z,3.33
2018-08-17T18:37:52.170Z,3.50
2018-08-17T18:40:22.157Z,3.40
2018-08-17T18:42:51.905Z,3.47
2018-08-17T18:45:26.595Z,3.55
2018-08-17T18:47:57.536Z,3.58
2018-08-17T18:50:27.202Z,3.12
2018-08-17T18:52:57.753Z,3.67
2018-08-17T18:55:27.360Z,3.42
2018-08-17T18:57:57.129Z,4.58
2018-08-17T19:00:28.260Z,3.55
2018-08-17T19:02:57.650Z,3.47
2018-08-17T19:05:27.362Z,3.92
2018-08-17T19:07:57.119Z,4.10
2018-08-17T19:10:27.763Z,3.92
2018-08-17T19:12:56.929Z,3.60
2018-08-17T19:15:28.163Z,4.15
2018-08-17T19:17:58.165Z,4.17
2018-08-17T19:20:27.845Z,4.20
2018-08-17T19:22:57.288Z,4.08
2018-08-17T19:25:27.046Z,5.53
2018-08-17T19:27:56.806Z,4.85
2018-08-17T19:30:32.330Z,4.55
2018-08-17T19:33:05.979Z,4.80
2018-08-17T19:35:35.388Z,4.42
2018-08-17T19:38:05.911Z,3.90
2018-08-17T19:40:35.735Z,4.37
2018-08-17T19:43:06.120Z,3.77
2018-08-17T19:45:35.354Z,4.30
2018-08-17T19:48:05.850Z,4.50
2018-08-17T19:50:35.845Z,4.30
2018-08-17T19:53:05.753Z,4.28
2018-08-17T19:55:34.925Z,3.95
2018-08-17T19:58:04.545Z,4.15
2018-08-17T20:00:35.293Z,3.72
2018-08-17T20:03:06.027Z,4.05
2018-08-17T20:05:35.689Z,4.47
2018-08-17T20:08:05.319Z,3.87
2018-08-17T20:10:35.466Z,4.42
2018-08-17T20:13:05.866Z,4.60
2018-08-17T20:15:36.391Z,4.95
2018-08-17T20:18:07.051Z,4.42
2018-08-17T20:20:37.394Z,4.50
2018-08-17T20:23:06.777Z,5.20
2018-08-17T20:25:37.665Z,4.70
2018-08-17T20:28:07.857Z,4.40
2018-08-17T20:30:37.617Z,4.45
2018-08-17T20:33:16.489Z,4.70
2018-08-17T20:35:46.718Z,4.87
2018-08-17T20:38:15.894Z,4.35
2018-08-17T20:40:45.832Z,4.95
2018-08-17T20:43:15.912Z,4.20
2018-08-17T20:45:45.990Z,4.35
2018-08-17T20:48:15.749Z,4.75
2018-08-17T20:50:45.513Z,4.70
2018-08-17T20:53:15.522Z,4.40
2018-08-17T20:55:45.668Z,5.35
2018-08-17T20:58:15.748Z,4.53
2018-08-17T21:00:45.830Z,4.70
2018-08-17T21:03:15.907Z,4.80
2018-08-17T21:05:45.887Z,4.65
2018-08-17T21:08:15.750Z,4.72
2018-08-17T21:10:45.506Z,5.37
2018-08-17T21:13:16.518Z,4.75
2018-08-17T21:15:47.535Z,4.72
2018-08-17T21:18:17.521Z,4.70
2018-08-17T21:20:47.749Z,4.78
2018-08-17T21:23:17.686Z,4.83
2018-08-17T21:25:47.458Z,4.55
2018-08-17T21:28:17.667Z,4.80
2018-08-17T21:30:47.592Z,4.35
2018-08-17T21:33:17.367Z,4.28
2018-08-17T21:35:47.479Z,4.30
2018-08-17T21:38:17.669Z,4.97
2018-08-17T21:40:47.750Z,4.17
2018-08-17T21:43:18.468Z,4.53
2018-08-17T21:45:49.691Z,5.00
2018-08-17T21:48:29.578Z,4.60
2018-08-17T21:51:00.169Z,5.15
2018-08-17T21:53:30.269Z,4.83
2018-08-17T21:56:00.261Z,4.87
2018-08-17T21:58:30.343Z,4.83
2018-08-17T22:00:59.908Z,6.10
2018-08-17T22:03:32.064Z,6.05
2018-08-17T22:06:02.308Z,5.75
2018-08-17T22:08:32.080Z,6.40
2018-08-17T22:11:01.693Z,5.70
2018-08-17T22:13:33.677Z,6.30
2018-08-17T22:16:03.860Z,6.12
2018-08-17T22:18:34.390Z,6.05
2018-08-17T22:21:05.354Z,5.55
2018-08-17T22:23:36.003Z,6.22
2018-08-17T22:26:08.726Z,6.67
2018-08-17T22:28:39.434Z,6.55
2018-08-17T22:31:09.507Z,6.28
2018-08-17T22:33:40.230Z,6.17
2018-08-17T22:36:14.787Z,5.72
2018-08-17T22:38:47.108Z,6.35
2018-08-17T22:41:18.220Z,6.67
2018-08-17T22:43:47.357Z,6.72
2018-08-17T22:46:16.881Z,5.97
2018-08-17T22:48:47.451Z,6.78
2018-08-17T22:51:17.508Z,6.40
2018-08-17T22:53:47.185Z,6.12
2018-08-17T22:56:17.026Z,6.50
2018-08-17T22:58:49.934Z,6.45
2018-08-17T23:01:21.217Z,6.95
2018-08-17T23:03:56.493Z,6.85
2018-08-17T23:06:27.164Z,6.65
2018-08-17T23:08:57.193Z,6.55
2018-08-17T23:11:33.082Z,6.55
2018-08-17T23:14:08.041Z,6.42
2018-08-17T23:16:37.353Z,6.80
2018-08-17T23:19:07.270Z,6.75
2018-08-17T23:21:37.348Z,7.42
2018-08-17T23:24:07.327Z,6.85
2018-08-17T23:26:37.048Z,6.65
2018-08-17T23:29:08.490Z,7.90
2018-08-17T23:31:38.687Z,7.47
2018-08-17T23:34:09.385Z,7.12
2018-08-17T23:36:40.068Z,6.87
2018-08-17T23:39:10.658Z,7.10
2018-08-17T23:41:40.549Z,7.35
2018-08-17T23:44:16.388Z,6.97
2018-08-17T23:46:46.786Z,7.40
2018-08-17T23:49:16.873Z,7.15
2018-08-17T23:51:46.796Z,6.97
2018-08-17T23:54:16.447Z,7.53
2018-08-17T23:56:47.424Z,9.90
2018-08-17T23:59:18.468Z,9.48
